createdAt,value
2024-01-12T00:01:52.970Z,73.97
2024-01-12T00:04:19.720Z,84.28
2024-01-12T00:06:47.687Z,82.20
2024-01-12T00:09:14.720Z,72.97
2024-01-12T00:11:41.540Z,86.72
2024-01-12T00:14:09.160Z,82.57
2024-01-12T00:16:35.910Z,86.45
2024-01-12T00:19:02.771Z,84.18
2024-01-12T00:21:29.564Z,82.35
2024-01-12T00:23:56.438Z,94.53
2024-01-12T00:26:23.286Z,77.10
2024-01-12T00:28:50.026Z,75.85
2024-01-12T00:31:17.202Z,73.25
2024-01-12T00:33:44.170Z,68.82
2024-01-12T00:36:10.972Z,80.00
2024-01-12T00:38:37.866Z,67.22
2024-01-12T00:41:04.805Z,72.78
2024-01-12T00:43:32.227Z,73.97
2024-01-12T00:45:58.988Z,67.90
2024-01-12T00:48:26.020Z,73.45
2024-01-12T00:50:53.192Z,68.65
2024-01-12T00:53:20.333Z,82.72
2024-01-12T00:55:47.153Z,72.15
2024-01-12T00:58:13.882Z,73.70
2024-01-12T01:00:40.770Z,69.35
2024-01-12T01:03:07.543Z,66.88
2024-01-12T01:05:34.861Z,66.80
2024-01-12T01:08:01.684Z,70.38
2024-01-12T01:10:28.412Z,73.40
2024-01-12T01:12:55.308Z,69.80
2024-01-12T01:15:22.119Z,67.88
2024-01-12T01:20:17.471Z,71.53
2024-01-12T01:22:44.334Z,96.38
2024-01-12T01:25:12.105Z,69.22
2024-01-12T01:27:38.805Z,62.83
2024-01-12T01:30:06.131Z,70.72
2024-01-12T01:32:33.500Z,73.50
2024-01-12T01:35:00.521Z,83.47
2024-01-12T01:37:27.336Z,69.20
2024-01-12T01:39:54.450Z,68.63
2024-01-12T01:42:21.200Z,71.22
2024-01-12T01:44:48.053Z,65.45
2024-01-12T01:47:16.084Z,68.22
2024-01-12T01:49:43.348Z,73.93
2024-01-12T01:52:10.971Z,70.70
2024-01-12T01:54:38.120Z,72.13
2024-01-12T01:57:06.544Z,78.03
2024-01-12T01:59:36.402Z,76.63
2024-01-12T02:02:04.607Z,66.70
2024-01-12T02:04:32.327Z,60.90
2024-01-12T02:06:59.641Z,63.58
2024-01-12T02:09:26.511Z,69.90
2024-01-12T02:11:53.370Z,79.03
2024-01-12T02:14:20.413Z,72.35
2024-01-12T02:16:47.673Z,70.28
2024-01-12T02:19:14.452Z,71.85
2024-01-12T02:21:41.296Z,68.38
2024-01-12T02:24:08.017Z,75.40
2024-01-12T02:26:35.164Z,74.32
2024-01-12T02:29:04.220Z,73.80
2024-01-12T02:31:31.464Z,70.18
2024-01-12T02:33:58.793Z,76.78
2024-01-12T02:36:28.499Z,73.90
2024-01-12T02:38:56.071Z,61.42
2024-01-12T02:41:23.090Z,71.00
2024-01-12T02:43:49.877Z,73.22
2024-01-12T02:46:16.718Z,69.88
2024-01-12T02:48:43.600Z,69.68
2024-01-12T02:51:10.420Z,71.93
2024-01-12T02:53:52.780Z,69.05
2024-01-12T02:56:19.535Z,73.43
2024-01-12T02:58:46.303Z,64.68
2024-01-12T03:01:13.017Z,73.90
2024-01-12T03:03:39.851Z,72.10
2024-01-12T03:06:07.605Z,68.97
2024-01-12T03:08:34.612Z,66.88
2024-01-12T03:11:01.333Z,63.08
2024-01-12T03:13:28.025Z,73.97
2024-01-12T03:15:55.088Z,67.88
2024-01-12T03:18:23.299Z,67.97
2024-01-12T03:20:50.248Z,75.40
2024-01-12T03:23:17.120Z,79.70
2024-01-12T03:25:44.025Z,80.90
2024-01-12T03:28:10.710Z,77.47
2024-01-12T03:30:37.501Z,79.07
2024-01-12T03:33:04.610Z,70.45
2024-01-12T03:35:32.312Z,67.45
2024-01-12T03:38:01.445Z,69.03
2024-01-12T03:40:28.754Z,84.95
2024-01-12T03:42:55.673Z,79.72
2024-01-12T03:45:22.630Z,70.43
2024-01-12T03:47:49.534Z,77.38
2024-01-12T03:50:16.441Z,77.75
2024-01-12T03:52:43.171Z,71.63
2024-01-12T03:55:09.903Z,73.47
2024-01-12T03:57:36.586Z,71.60
2024-01-12T04:00:04.115Z,72.65
2024-01-12T04:02:30.883Z,70.80
2024-01-12T04:04:57.631Z,71.03
2024-01-12T04:07:24.402Z,63.95
2024-01-12T04:09:51.146Z,68.40
2024-01-12T04:12:17.874Z,76.07
2024-01-12T04:14:46.789Z,67.45
2024-01-12T04:17:13.940Z,68.85
2024-01-12T04:19:40.744Z,66.47
2024-01-12T04:22:07.547Z,63.08
2024-01-12T04:24:34.312Z,69.43
2024-01-12T04:27:01.568Z,62.85
2024-01-12T04:29:28.341Z,66.65
2024-01-12T04:31:55.073Z,67.90
2024-01-12T04:34:21.827Z,70.97
2024-01-12T04:36:48.671Z,71.72
2024-01-12T04:39:16.252Z,71.65
2024-01-12T04:41:43.064Z,70.82
2024-01-12T04:44:09.861Z,57.40
2024-01-12T04:46:36.654Z,59.83
2024-01-12T04:49:03.451Z,59.15
2024-01-12T04:51:31.064Z,56.50
2024-01-12T04:53:57.988Z,59.70
2024-01-12T04:56:24.752Z,64.07
2024-01-12T04:58:51.537Z,55.47
2024-01-12T05:01:18.399Z,64.03
2024-01-12T05:03:45.400Z,55.22
2024-01-12T05:06:12.323Z,62.63
2024-01-12T05:08:39.204Z,56.75
2024-01-12T05:11:06.011Z,55.53
2024-01-12T05:13:32.737Z,56.22
2024-01-12T05:15:59.509Z,55.17
2024-01-12T05:18:26.600Z,50.83
2024-01-12T05:20:53.451Z,48.97
2024-01-12T05:23:20.726Z,51.38
2024-01-12T05:25:47.531Z,45.38
2024-01-12T05:28:14.295Z,48.90
2024-01-12T05:30:41.125Z,46.53
2024-01-12T05:33:07.998Z,48.47
2024-01-12T05:35:34.811Z,58.25
2024-01-12T05:38:01.559Z,50.45
2024-01-12T05:40:28.265Z,51.53
2024-01-12T05:42:54.996Z,56.75
2024-01-12T05:45:21.709Z,52.35
2024-01-12T05:47:48.500Z,51.42
2024-01-12T05:50:15.385Z,54.25
2024-01-12T05:52:42.189Z,51.90
2024-01-12T05:55:09.150Z,48.33
2024-01-12T05:57:36.404Z,50.38
2024-01-12T06:00:05.383Z,48.83
2024-01-12T06:02:32.502Z,46.30
2024-01-12T06:04:59.422Z,53.38
2024-01-12T06:07:26.108Z,78.65
2024-01-12T06:09:52.908Z,56.78
2024-01-12T06:12:19.682Z,54.65
2024-01-12T06:14:46.459Z,48.58
2024-01-12T06:17:13.207Z,48.70
2024-01-12T06:19:39.975Z,55.95
2024-01-12T06:22:06.847Z,54.80
2024-01-12T06:24:33.548Z,55.63
2024-01-12T06:27:02.943Z,49.15
2024-01-12T06:29:31.534Z,49.25
2024-01-12T06:31:58.334Z,52.75
2024-01-12T06:34:25.063Z,50.83
2024-01-12T06:36:51.771Z,58.95
2024-01-12T06:39:18.559Z,52.38
2024-01-12T06:41:47.769Z,54.40
2024-01-12T06:44:15.326Z,56.35
2024-01-12T06:46:44.948Z,52.78
2024-01-12T06:49:12.905Z,60.45
2024-01-12T06:51:39.850Z,58.25
2024-01-12T06:54:07.078Z,61.58
2024-01-12T06:56:38.360Z,47.53
2024-01-12T06:59:05.874Z,44.17
2024-01-12T07:01:33.234Z,53.42
2024-01-12T07:04:00.180Z,47.25
2024-01-12T07:06:27.194Z,49.10
2024-01-12T07:08:54.151Z,55.08
2024-01-12T07:11:21.028Z,53.30
2024-01-12T07:13:47.829Z,54.30
2024-01-12T07:16:14.773Z,71.82
2024-01-12T07:18:42.940Z,46.13
2024-01-12T07:21:10.051Z,48.70
2024-01-12T07:23:36.912Z,48.03
2024-01-12T07:26:03.798Z,67.07
2024-01-12T07:28:30.718Z,48.85
2024-01-12T07:30:57.475Z,57.60
2024-01-12T07:33:24.457Z,54.65
2024-01-12T07:35:51.309Z,63.78
2024-01-12T07:38:19.617Z,52.45
2024-01-12T07:40:48.080Z,54.42
2024-01-12T07:43:15.080Z,58.03
2024-01-12T07:45:41.853Z,54.38
2024-01-12T07:48:11.402Z,57.83
2024-01-12T07:50:38.329Z,61.88
2024-01-12T07:53:05.713Z,60.25
2024-01-12T07:55:32.626Z,61.53
2024-01-12T07:57:59.405Z,72.53
2024-01-12T08:00:26.602Z,62.15
2024-01-12T08:02:53.817Z,65.50
2024-01-12T08:05:21.764Z,63.13
2024-01-12T08:07:49.374Z,56.85
2024-01-12T08:10:17.268Z,64.85
2024-01-12T08:12:44.594Z,64.40
2024-01-12T08:15:11.411Z,60.03
2024-01-12T08:17:39.281Z,52.97
2024-01-12T08:20:06.926Z,55.25
2024-01-12T08:22:33.755Z,62.88
2024-01-12T08:25:01.318Z,53.67
2024-01-12T08:27:28.135Z,58.25
2024-01-12T08:29:54.954Z,60.35
2024-01-12T08:32:21.713Z,59.78
2024-01-12T08:34:49.045Z,67.80
2024-01-12T08:37:15.837Z,70.22
2024-01-12T08:39:42.587Z,54.28
2024-01-12T08:42:10.432Z,64.85
2024-01-12T08:44:37.232Z,55.22
2024-01-12T08:47:04.412Z,56.85
2024-01-12T08:49:31.245Z,68.35
2024-01-12T08:51:58.111Z,58.03
2024-01-12T08:54:24.906Z,58.30
2024-01-12T08:56:51.805Z,63.40
2024-01-12T08:59:21.699Z,63.33
2024-01-12T09:01:48.670Z,62.88
2024-01-12T09:04:15.785Z,54.33
2024-01-12T09:06:42.740Z,51.97
2024-01-12T09:09:09.584Z,60.38
2024-01-12T09:11:36.972Z,60.95
2024-01-12T09:14:05.299Z,62.40
2024-01-12T09:16:33.957Z,56.05
2024-01-12T09:19:00.905Z,63.05
2024-01-12T09:21:27.802Z,60.50
2024-01-12T09:23:54.686Z,57.70
2024-01-12T09:26:21.515Z,55.17
2024-01-12T09:28:48.304Z,61.03
2024-01-12T09:31:15.325Z,57.10
2024-01-12T09:33:43.092Z,63.15
2024-01-12T09:36:10.211Z,64.90
2024-01-12T09:38:37.332Z,59.15
2024-01-12T09:41:04.544Z,58.63
2024-01-12T09:43:33.087Z,55.83
2024-01-12T09:46:02.110Z,56.53
2024-01-12T09:48:29.319Z,57.92
2024-01-12T09:50:59.086Z,61.78
2024-01-12T09:53:26.859Z,54.50
2024-01-12T09:56:03.326Z,61.25
2024-01-12T09:58:39.736Z,67.43
2024-01-12T10:01:09.257Z,46.15
2024-01-12T10:03:38.442Z,65.30
2024-01-12T10:06:05.753Z,57.00
2024-01-12T10:08:37.138Z,65.95
2024-01-12T10:11:04.316Z,56.70
2024-01-12T10:13:31.234Z,67.05
2024-01-12T10:15:58.277Z,64.35
2024-01-12T10:18:25.481Z,63.97
2024-01-12T10:20:52.665Z,56.78
2024-01-12T10:23:23.360Z,56.47
2024-01-12T10:26:01.267Z,57.42
2024-01-12T10:28:31.994Z,55.22
2024-01-12T10:30:59.067Z,53.42
2024-01-12T10:33:26.352Z,57.65
2024-01-12T10:36:22.906Z,58.45
2024-01-12T10:38:53.063Z,57.83
2024-01-12T10:41:23.261Z,60.80
2024-01-12T10:43:55.437Z,58.33
2024-01-12T10:46:43.914Z,58.60
2024-01-12T10:49:32.377Z,57.05
2024-01-12T10:52:14.154Z,59.88
2024-01-12T10:55:15.138Z,62.58
2024-01-12T10:57:43.741Z,61.25
2024-01-12T11:00:12.144Z,65.22
2024-01-12T11:02:40.552Z,61.20
2024-01-12T11:05:14.634Z,63.03
2024-01-12T11:07:44.419Z,58.15
2024-01-12T11:10:18.729Z,58.70
2024-01-12T11:15:12.749Z,57.15
2024-01-12T11:17:41.099Z,59.00
2024-01-12T11:20:14.128Z,58.92
2024-01-12T11:22:43.368Z,59.53
2024-01-12T11:25:12.772Z,63.95
2024-01-12T11:27:41.680Z,56.38
2024-01-12T11:30:15.192Z,62.63
2024-01-12T11:32:45.053Z,60.17
2024-01-12T11:35:16.966Z,53.85
2024-01-12T11:38:04.123Z,56.40
2024-01-12T11:40:33.803Z,56.40
2024-01-12T11:43:02.111Z,59.85
2024-01-12T11:45:30.528Z,62.05
2024-01-12T11:47:57.805Z,56.30
2024-01-12T11:50:28.946Z,58.55
2024-01-12T11:53:01.941Z,58.22
2024-01-12T11:55:29.784Z,52.97
2024-01-12T11:57:57.305Z,57.20
2024-01-12T12:00:25.033Z,53.13
2024-01-12T12:02:55.742Z,56.92
2024-01-12T12:05:25.399Z,64.38
2024-01-12T12:07:52.698Z,57.40
2024-01-12T12:10:26.261Z,57.33
2024-01-12T12:12:58.576Z,60.65
2024-01-12T12:15:26.574Z,57.33
2024-01-12T12:17:55.549Z,58.35
2024-01-12T12:20:25.221Z,57.50
2024-01-12T12:22:53.530Z,62.67
2024-01-12T12:25:20.706Z,67.00
2024-01-12T12:27:48.005Z,54.78
2024-01-12T12:30:19.452Z,56.97
2024-01-12T12:32:48.357Z,57.63
2024-01-12T12:35:18.729Z,60.78
2024-01-12T12:37:49.603Z,58.17
2024-01-12T12:40:17.945Z,62.45
2024-01-12T12:42:46.255Z,58.78
2024-01-12T12:45:13.557Z,60.78
2024-01-12T12:47:41.060Z,57.20
2024-01-12T12:50:12.989Z,56.35
2024-01-12T12:52:41.655Z,57.70
2024-01-12T12:55:09.143Z,57.88
2024-01-12T12:57:37.336Z,56.33
2024-01-12T13:00:06.844Z,52.83
2024-01-12T13:02:33.910Z,56.17
2024-01-12T13:05:00.649Z,53.47
2024-01-12T13:07:27.658Z,60.97
2024-01-12T13:09:57.165Z,54.92
2024-01-12T13:12:25.922Z,51.90
2024-01-12T13:14:53.150Z,54.47
2024-01-12T13:17:22.250Z,57.55
2024-01-12T13:19:49.204Z,54.78
2024-01-12T13:22:16.177Z,56.65
2024-01-12T13:24:43.120Z,57.72
2024-01-12T13:27:10.587Z,61.03
2024-01-12T13:29:37.467Z,54.50
2024-01-12T13:32:04.479Z,54.38
2024-01-12T13:34:31.935Z,53.90
2024-01-12T13:37:02.797Z,64.35
2024-01-12T13:39:31.073Z,59.63
2024-01-12T13:42:02.458Z,60.50
2024-01-12T13:44:29.518Z,59.83
2024-01-12T13:46:56.328Z,56.95
2024-01-12T13:49:24.952Z,61.10
2024-01-12T13:51:57.594Z,55.70
2024-01-12T13:54:24.489Z,56.97
2024-01-12T13:56:51.325Z,50.38
2024-01-12T13:59:18.097Z,54.42
2024-01-12T14:01:45.157Z,50.08
2024-01-12T14:04:13.294Z,53.60
2024-01-12T14:06:41.963Z,57.92
2024-01-12T14:09:10.665Z,48.95
2024-01-12T14:11:38.202Z,53.97
2024-01-12T14:14:05.452Z,54.08
2024-01-12T14:16:32.543Z,49.85
2024-01-12T14:18:59.629Z,49.13
2024-01-12T14:21:26.550Z,53.03
2024-01-12T14:23:53.320Z,45.47
2024-01-12T14:26:20.203Z,51.35
2024-01-12T14:28:47.679Z,49.72
2024-01-12T14:31:16.882Z,47.17
2024-01-12T14:33:47.816Z,57.15
2024-01-12T14:36:15.446Z,51.25
2024-01-12T14:38:43.885Z,49.47
2024-01-12T14:41:10.879Z,47.55
2024-01-12T14:43:38.011Z,51.30
2024-01-12T14:46:05.146Z,54.90
2024-01-12T14:48:32.784Z,53.92
2024-01-12T14:50:59.864Z,54.53
2024-01-12T14:53:26.976Z,50.00
2024-01-12T14:55:54.026Z,50.58
2024-01-12T14:58:21.094Z,58.97
2024-01-12T15:00:49.156Z,59.33
2024-01-12T15:03:16.241Z,49.33
2024-01-12T15:05:43.177Z,57.70
2024-01-12T15:08:10.505Z,55.20
2024-01-12T15:10:37.421Z,56.95
2024-01-12T15:13:06.781Z,56.22
2024-01-12T15:15:34.873Z,57.38
2024-01-12T15:18:02.685Z,61.25
2024-01-12T15:20:29.935Z,60.03
2024-01-12T15:23:05.063Z,55.03
2024-01-12T15:25:33.979Z,58.83
2024-01-12T15:28:00.849Z,55.33
2024-01-12T15:30:28.192Z,54.95
2024-01-12T15:32:56.510Z,57.47
2024-01-12T15:35:23.802Z,54.92
2024-01-12T15:37:51.036Z,59.60
2024-01-12T15:40:18.277Z,56.17
2024-01-12T15:42:49.533Z,65.78
2024-01-12T15:53:11.387Z,62.63
2024-01-12T15:55:38.307Z,58.13
2024-01-12T15:58:08.758Z,62.30
2024-01-12T16:00:40.693Z,57.33
2024-01-12T16:03:07.772Z,74.60
2024-01-12T16:05:35.021Z,85.18
2024-01-12T16:08:02.572Z,71.32
2024-01-12T16:10:37.991Z,80.13
2024-01-12T16:13:21.817Z,64.55
2024-01-12T16:15:54.431Z,63.85
2024-01-12T16:41:24.465Z,58.30
2024-01-12T16:43:51.221Z,60.55
2024-01-12T16:46:17.941Z,60.20
2024-01-12T16:48:44.860Z,54.15
2024-01-12T16:51:16.751Z,54.65
2024-01-12T16:53:43.570Z,57.03
2024-01-12T16:56:10.382Z,50.55
2024-01-12T16:58:37.425Z,51.65
2024-01-12T17:01:04.917Z,51.13
2024-01-12T17:03:32.236Z,52.40
2024-01-12T17:05:59.617Z,49.65
2024-01-12T17:08:26.987Z,51.60
2024-01-12T17:10:53.762Z,55.88
2024-01-12T17:13:20.520Z,54.90
2024-01-12T17:15:48.209Z,52.92
2024-01-12T17:18:19.496Z,53.88
2024-01-12T17:20:53.318Z,46.85
2024-01-12T17:23:20.198Z,54.67
2024-01-12T17:25:46.896Z,48.28
2024-01-12T17:28:13.707Z,49.25
2024-01-12T17:30:44.412Z,52.10
2024-01-12T17:33:12.033Z,55.92
2024-01-12T17:35:39.017Z,49.03
2024-01-12T17:38:07.192Z,51.78
2024-01-12T17:40:34.975Z,55.15
2024-01-12T17:43:01.752Z,55.95
2024-01-12T17:45:29.300Z,51.47
2024-01-12T17:47:57.165Z,51.42
2024-01-12T17:50:24.198Z,56.72
2024-01-12T17:52:50.987Z,58.30
2024-01-12T17:55:17.714Z,59.28
2024-01-12T17:57:44.545Z,56.08
2024-01-12T18:00:13.527Z,57.45
2024-01-12T18:02:40.674Z,58.60
2024-01-12T18:05:07.769Z,58.85
2024-01-12T18:07:34.652Z,56.88
2024-01-12T18:10:01.928Z,55.45
2024-01-12T18:12:28.696Z,56.50
2024-01-12T18:14:55.518Z,58.17
2024-01-12T18:17:23.287Z,52.80
2024-01-12T18:19:50.092Z,54.92
2024-01-12T18:22:16.886Z,55.28
2024-01-12T18:24:47.683Z,57.20
2024-01-12T18:27:15.027Z,53.35
2024-01-12T18:29:42.010Z,57.03
2024-01-12T18:32:08.951Z,53.00
2024-01-12T18:34:35.926Z,56.00
2024-01-12T18:37:02.891Z,54.35
2024-01-12T18:39:29.977Z,74.38
2024-01-12T18:41:57.272Z,53.70
2024-01-12T18:44:24.064Z,56.60
2024-01-12T18:46:50.800Z,60.22
2024-01-12T18:49:17.614Z,66.55
2024-01-12T18:51:44.508Z,61.85
2024-01-12T18:54:11.311Z,61.75
2024-01-12T18:56:38.097Z,47.13
2024-01-12T18:59:04.825Z,56.33
2024-01-12T19:01:34.165Z,53.47
2024-01-12T19:04:01.047Z,53.47
2024-01-12T19:06:28.024Z,55.38
2024-01-12T19:08:54.816Z,48.42
2024-01-12T19:11:21.633Z,57.10
2024-01-12T19:13:48.344Z,54.72
2024-01-12T19:16:15.541Z,43.45
2024-01-12T19:18:42.489Z,53.35
2024-01-12T19:21:10.356Z,36.88
2024-01-12T19:23:37.128Z,38.67
2024-01-12T19:26:04.831Z,54.60
2024-01-12T19:28:31.596Z,42.47
2024-01-12T19:30:59.129Z,47.85
2024-01-12T19:33:26.117Z,44.45
2024-01-12T19:35:53.017Z,46.70
2024-01-12T19:38:19.801Z,80.55
2024-01-12T19:40:46.607Z,47.10
2024-01-12T19:43:13.440Z,53.58
2024-01-12T19:45:40.442Z,45.90
2024-01-12T19:48:07.559Z,53.15
2024-01-12T19:50:34.387Z,67.60
2024-01-12T19:53:01.107Z,50.55
2024-01-12T19:55:27.823Z,54.08
2024-01-12T19:57:54.787Z,45.00
2024-01-12T20:00:21.623Z,43.63
2024-01-12T20:02:49.313Z,44.08
2024-01-12T20:05:16.123Z,78.75
2024-01-12T20:07:42.903Z,38.35
2024-01-12T20:10:10.088Z,34.45
2024-01-12T20:12:36.842Z,44.25
2024-01-12T20:15:04.308Z,53.72
2024-01-12T20:17:31.726Z,45.35
2024-01-12T20:19:58.694Z,43.25
2024-01-12T20:22:25.509Z,53.85
2024-01-12T20:24:52.974Z,43.83
2024-01-12T20:27:19.995Z,39.47
2024-01-12T20:29:46.788Z,56.83
2024-01-12T20:32:13.646Z,48.42
2024-01-12T20:34:40.727Z,49.65
2024-01-12T20:37:09.066Z,44.13
2024-01-12T20:39:35.789Z,47.45
2024-01-12T20:42:02.704Z,45.95
2024-01-12T20:44:29.510Z,47.85
2024-01-12T20:46:56.229Z,48.08
2024-01-12T20:49:23.030Z,39.35
2024-01-12T20:51:49.848Z,41.78
2024-01-12T20:54:16.605Z,44.10
2024-01-12T20:56:43.430Z,47.65
2024-01-12T20:59:10.194Z,44.15
2024-01-12T21:01:37.180Z,45.65
2024-01-12T21:04:04.207Z,41.90
2024-01-12T21:06:31.028Z,39.75
2024-01-12T21:08:57.822Z,50.17
2024-01-12T21:11:24.648Z,50.72
2024-01-12T21:13:51.397Z,45.58
2024-01-12T21:16:18.121Z,47.10
2024-01-12T21:18:45.035Z,45.25
2024-01-12T21:21:12.120Z,42.70
2024-01-12T21:23:39.043Z,49.17
2024-01-12T21:26:06.706Z,44.58
2024-01-12T21:28:33.460Z,45.80
2024-01-12T21:31:00.404Z,41.65
2024-01-12T21:33:27.523Z,43.25
2024-01-12T21:35:54.568Z,49.50
2024-01-12T21:38:21.622Z,50.42
2024-01-12T21:40:48.492Z,72.65
2024-01-12T21:43:15.286Z,45.80
2024-01-12T21:45:42.087Z,49.53
2024-01-12T21:48:09.034Z,51.25
2024-01-12T21:50:38.254Z,52.92
2024-01-12T21:53:06.606Z,49.17
2024-01-12T21:55:33.429Z,49.15
2024-01-12T21:58:05.972Z,42.63
2024-01-12T22:00:34.233Z,45.10
2024-01-12T22:03:01.927Z,54.80
2024-01-12T22:05:28.833Z,48.30
2024-01-12T22:07:55.645Z,48.38
2024-01-12T22:10:22.405Z,45.92
2024-01-12T22:12:50.701Z,45.75
2024-01-12T22:15:17.610Z,46.60
2024-01-12T22:17:44.984Z,48.08
2024-01-12T22:20:12.131Z,46.45
2024-01-12T22:22:40.247Z,44.85
2024-01-12T22:25:11.247Z,46.83
2024-01-12T22:27:39.757Z,51.75
2024-01-12T22:30:08.674Z,46.72
2024-01-12T22:32:35.894Z,46.10
2024-01-12T22:35:03.034Z,77.18
2024-01-12T22:37:30.120Z,45.30
2024-01-12T22:39:56.894Z,54.00
2024-01-12T22:42:23.585Z,80.30
2024-01-12T22:44:50.517Z,75.55
2024-01-12T22:47:17.225Z,56.92
2024-01-12T22:49:44.216Z,51.83
2024-01-12T22:52:11.075Z,57.47
2024-01-12T22:54:37.855Z,53.30
2024-01-12T22:57:04.798Z,53.53
2024-01-12T22:59:31.586Z,70.03
2024-01-12T23:01:58.338Z,58.10
2024-01-12T23:04:25.115Z,60.58
2024-01-12T23:06:53.025Z,57.17
2024-01-12T23:09:19.838Z,62.47
2024-01-12T23:11:48.377Z,59.08
2024-01-12T23:14:15.147Z,59.88
2024-01-12T23:16:41.848Z,57.80
2024-01-12T23:19:10.221Z,68.25
2024-01-12T23:21:37.136Z,56.45
2024-01-12T23:24:04.595Z,57.53
2024-01-12T23:26:31.464Z,57.05
2024-01-12T23:28:58.321Z,50.55
2024-01-12T23:31:25.372Z,51.35
2024-01-12T23:33:52.371Z,46.85
2024-01-12T23:36:19.398Z,47.38
2024-01-12T23:38:46.215Z,48.75
2024-01-12T23:41:13.049Z,51.60
2024-01-12T23:43:41.507Z,47.40
2024-01-12T23:46:11.309Z,58.45
2024-01-12T23:48:38.510Z,48.25
2024-01-12T23:51:06.940Z,49.22
2024-01-12T23:53:33.866Z,48.90
2024-01-12T23:56:00.665Z,44.83
2024-01-12T23:58:34.441Z,41.35
